Time;durP1;ratioP1;P1;durP2;ratioP2;P2;SDS_P1;SDS_P2;PMS_P1;PMS_P2;Temp;Humidity;BMP_temperature;BMP_pressure;BME280_temperature;BME280_humidity;BME280_pressure;Samples;Min_cycle;Max_cycle;Signal;HPM_P1;HPM_P2
2022/07/20 00:02:02;;;;;;;4.38;4.07;;;;;;;;;;4841772;29;20042;-72
2022/07/20 00:04:28;;;;;;;3.58;3.40;;;;;;;;;;4842134;29;20051;-73
2022/07/20 00:06:54;;;;;;;6.30;4.00;;;;;;;;;;4858560;29;20132;-72
2022/07/20 00:12:05;;;;;;;6.22;4.35;;;;;;;;;;4858356;29;20133;-73
2022/07/20 00:14:31;;;;;;;5.15;4.20;;;;;;;;;;4858282;29;20165;-73
2022/07/20 00:16:57;;;;;;;8.40;4.10;;;;;;;;;;4858237;29;20118;-73
2022/07/20 00:19:23;;;;;;;3.92;3.55;;;;;;;;;;4858196;29;20045;-74
2022/07/20 00:21:48;;;;;;;4.60;4.03;;;;;;;;;;4858709;29;20128;-73
2022/07/20 00:24:15;;;;;;;5.07;4.43;;;;;;;;;;4864259;29;20042;-73
2022/07/20 00:26:40;;;;;;;4.30;3.97;;;;;;;;;;4865837;29;20427;-73
2022/07/20 00:29:06;;;;;;;4.05;3.75;;;;;;;;;;4845205;29;20041;-72
2022/07/20 00:31:32;;;;;;;3.83;3.53;;;;;;;;;;4858175;29;20052;-73
2022/07/20 00:33:59;;;;;;;3.72;3.42;;;;;;;;;;4826281;29;20041;-73
2022/07/20 00:36:25;;;;;;;3.80;3.55;;;;;;;;;;4857820;29;20396;-71
2022/07/20 00:38:51;;;;;;;3.63;3.33;;;;;;;;;;4841338;29;20045;-73
2022/07/20 00:41:16;;;;;;;4.35;3.40;;;;;;;;;;4840998;29;20220;-74
2022/07/20 00:43:52;;;;;;;5.80;3.65;;;;;;;;;;4857798;29;20119;-73
2022/07/20 00:46:18;;;;;;;6.07;3.80;;;;;;;;;;4841490;29;20117;-73
2022/07/20 00:48:44;;;;;;;4.00;3.17;;;;;;;;;;4857836;29;20136;-74
2022/07/20 00:51:10;;;;;;;4.05;3.75;;;;;;;;;;4856653;29;20041;-73
2022/07/20 00:53:36;;;;;;;5.22;4.82;;;;;;;;;;4857615;29;20506;-73
2022/07/20 00:56:02;;;;;;;7.35;6.05;;;;;;;;;;4857697;29;20068;-72
2022/07/20 00:58:28;;;;;;;10.15;8.23;;;;;;;;;;4857390;29;20166;-71
2022/07/20 01:00:54;;;;;;;13.50;7.35;;;;;;;;;;4857726;29;20540;-73
2022/07/20 01:03:20;;;;;;;9.20;8.30;;;;;;;;;;4857456;29;20045;-72
2022/07/20 01:05:45;;;;;;;9.98;8.93;;;;;;;;;;4857577;29;20049;-72
2022/07/20 01:08:11;;;;;;;14.55;10.52;;;;;;;;;;4856139;29;20455;-75
2022/07/20 01:10:37;;;;;;;12.88;10.38;;;;;;;;;;4841274;29;20430;-73
2022/07/20 01:13:03;;;;;;;13.38;10.50;;;;;;;;;;4857419;29;20045;-73
2022/07/20 01:15:29;;;;;;;11.18;9.98;;;;;;;;;;4857571;29;20068;-72
2022/07/20 01:17:54;;;;;;;15.77;10.30;;;;;;;;;;4841120;29;20083;-73
2022/07/20 01:20:20;;;;;;;10.98;9.77;;;;;;;;;;4840622;29;20045;-73
2022/07/20 01:22:46;;;;;;;19.90;10.75;;;;;;;;;;4840736;29;20471;-72
2022/07/20 01:25:12;;;;;;;12.13;9.52;;;;;;;;;;4857194;29;20132;-76
2022/07/20 01:27:38;;;;;;;14.95;11.48;;;;;;;;;;4857117;29;20061;-73
2022/07/20 01:30:04;;;;;;;12.10;10.77;;;;;;;;;;4857477;29;20042;-74
2022/07/20 01:32:30;;;;;;;11.63;10.40;;;;;;;;;;4857097;29;20494;-72
2022/07/20 01:34:56;;;;;;;12.32;11.23;;;;;;;;;;4857368;29;20084;-73
2022/07/20 01:37:22;;;;;;;14.73;11.10;;;;;;;;;;4857063;29;20057;-73
2022/07/20 01:39:48;;;;;;;11.60;9.82;;;;;;;;;;4840971;29;20058;-73
2022/07/20 01:42:14;;;;;;;14.48;10.73;;;;;;;;;;4840557;29;20044;-74
2022/07/20 01:44:40;;;;;;;13.50;9.88;;;;;;;;;;4841891;29;20132;-73
2022/07/20 01:47:06;;;;;;;10.70;9.57;;;;;;;;;;4842834;29;20045;-73
2022/07/20 01:49:32;;;;;;;11.70;8.50;;;;;;;;;;4857060;29;20407;-72
2022/07/20 01:51:58;;;;;;;12.35;7.95;;;;;;;;;;4857357;29;20041;-73
2022/07/20 01:54:24;;;;;;;11.27;7.65;;;;;;;;;;4856900;29;20057;-73
2022/07/20 01:56:50;;;;;;;8.48;7.53;;;;;;;;;;4855619;29;20061;-73
2022/07/20 01:59:16;;;;;;;8.30;6.25;;;;;;;;;;4856928;29;20511;-73
2022/07/20 02:01:41;;;;;;;8.40;5.72;;;;;;;;;;4857147;29;20053;-71
2022/07/20 02:04:07;;;;;;;5.00;4.60;;;;;;;;;;4840575;29;20053;-73
2022/07/20 02:06:33;;;;;;;8.48;5.10;;;;;;;;;;4825123;29;20456;-74
2022/07/20 02:08:59;;;;;;;8.02;4.60;;;;;;;;;;4855738;29;20585;-73
2022/07/20 02:11:25;;;;;;;4.88;3.80;;;;;;;;;;4856812;29;20064;-72
2022/07/20 02:13:51;;;;;;;3.60;3.30;;;;;;;;;;4856835;29;20045;-73
2022/07/20 02:16:17;;;;;;;5.28;3.60;;;;;;;;;;4856940;29;20077;-72
2022/07/20 02:18:44;;;;;;;7.90;3.70;;;;;;;;;;4857412;29;20376;-74
2022/07/20 02:21:09;;;;;;;3.50;3.20;;;;;;;;;;4844025;29;20045;-72
2022/07/20 02:23:35;;;;;;;3.75;3.45;;;;;;;;;;4859938;29;20052;-73
2022/07/20 02:26:01;;;;;;;7.45;3.45;;;;;;;;;;4843569;29;20149;-72
2022/07/20 02:28:27;;;;;;;5.47;3.60;;;;;;;;;;4843368;29;20069;-73
2022/07/20 02:30:53;;;;;;;5.25;3.13;;;;;;;;;;4860213;29;20049;-72
2022/07/20 02:33:18;;;;;;;4.00;3.40;;;;;;;;;;4843338;29;20052;-73
2022/07/20 02:35:44;;;;;;;7.75;3.25;;;;;;;;;;4860045;29;20403;-73
2022/07/20 02:38:10;;;;;;;5.20;3.88;;;;;;;;;;4860094;29;20045;-72
2022/07/20 02:40:36;;;;;;;6.15;3.10;;;;;;;;;;4843434;29;20465;-72
2022/07/20 02:43:02;;;;;;;3.22;2.95;;;;;;;;;;4858755;29;20126;-72
2022/07/20 02:45:28;;;;;;;4.78;3.30;;;;;;;;;;4859929;29;20064;-73
2022/07/20 02:47:58;;;;;;;10.55;3.33;;;;;;;;;;4859755;29;20107;-74
2022/07/20 02:50:24;;;;;;;5.00;3.27;;;;;;;;;;4843207;29;20136;-73
2022/07/20 02:52:50;;;;;;;3.30;3.00;;;;;;;;;;4858590;29;20144;-72
2022/07/20 02:55:16;;;;;;;6.80;3.40;;;;;;;;;;4859916;29;20198;-73
2022/07/20 02:57:41;;;;;;;3.45;3.13;;;;;;;;;;4859239;29;20053;-73
2022/07/20 03:00:08;;;;;;;4.78;3.60;;;;;;;;;;4859690;29;20042;-72
2022/07/20 03:02:34;;;;;;;5.38;3.20;;;;;;;;;;4859506;29;20049;-73
2022/07/20 03:05:00;;;;;;;4.25;3.30;;;;;;;;;;4860228;29;20434;-73
2022/07/20 03:07:26;;;;;;;3.67;3.38;;;;;;;;;;4843733;29;20425;-73
2022/07/20 03:09:51;;;;;;;10.10;3.40;;;;;;;;;;4860620;29;20529;-73
2022/07/20 03:12:17;;;;;;;5.05;3.60;;;;;;;;;;4860225;29;20050;-73
2022/07/20 03:14:43;;;;;;;10.27;3.88;;;;;;;;;;4860182;29;20095;-73
2022/07/20 03:17:09;;;;;;;8.10;3.50;;;;;;;;;;4843777;29;20436;-73
2022/07/20 03:19:35;;;;;;;14.35;3.55;;;;;;;;;;4859899;29;20050;-74
2022/07/20 03:22:01;;;;;;;3.70;3.17;;;;;;;;;;4859634;29;20496;-73
2022/07/20 03:24:27;;;;;;;10.43;3.55;;;;;;;;;;4859528;29;20060;-74
2022/07/20 03:26:53;;;;;;;6.72;3.35;;;;;;;;;;4860036;29;20054;-74
2022/07/20 03:29:19;;;;;;;4.95;3.13;;;;;;;;;;4859925;29;20144;-74
2022/07/20 03:31:44;;;;;;;12.45;3.70;;;;;;;;;;4842685;29;20511;-74
2022/07/20 03:34:10;;;;;;;5.93;3.20;;;;;;;;;;4861857;29;20426;-73
2022/07/20 03:36:36;;;;;;;3.88;3.30;;;;;;;;;;4861406;29;20064;-74
2022/07/20 03:39:02;;;;;;;4.88;3.60;;;;;;;;;;4864592;29;20124;-71
2022/07/20 03:41:28;;;;;;;5.60;3.33;;;;;;;;;;4859877;29;20052;-73
2022/07/20 03:43:54;;;;;;;6.35;3.28;;;;;;;;;;4859702;29;20051;-73
2022/07/20 03:46:20;;;;;;;6.63;3.17;;;;;;;;;;4843104;29;20151;-74
2022/07/20 03:48:46;;;;;;;4.97;3.15;;;;;;;;;;4859424;29;20128;-73
2022/07/20 03:51:12;;;;;;;8.65;3.50;;;;;;;;;;4858653;29;20109;-73
2022/07/20 03:53:38;;;;;;;4.45;3.38;;;;;;;;;;4859437;29;20042;-72
2022/07/20 03:56:04;;;;;;;5.57;3.47;;;;;;;;;;4860024;29;20060;-75
2022/07/20 03:58:30;;;;;;;4.68;3.53;;;;;;;;;;4842605;29;20069;-72
2022/07/20 04:00:56;;;;;;;3.88;3.50;;;;;;;;;;4859480;29;20052;-73
2022/07/20 04:03:22;;;;;;;4.43;3.60;;;;;;;;;;4859389;29;20059;-72
2022/07/20 04:05:48;;;;;;;5.00;3.30;;;;;;;;;;4859625;29;20049;-73
2022/07/20 04:08:14;;;;;;;8.75;3.97;;;;;;;;;;4842876;29;20073;-74
2022/07/20 04:10:40;;;;;;;4.72;3.50;;;;;;;;;;4859088;29;20065;-71
2022/07/20 04:13:06;;;;;;;6.22;3.60;;;;;;;;;;4859058;29;20045;-74
2022/07/20 04:15:31;;;;;;;6.15;3.80;;;;;;;;;;4859235;29;20045;-73
2022/07/20 04:17:57;;;;;;;7.45;3.33;;;;;;;;;;4859088;29;20100;-73
2022/07/20 04:20:23;;;;;;;6.32;3.50;;;;;;;;;;4842299;29;20053;-73
2022/07/20 04:22:49;;;;;;;4.72;3.60;;;;;;;;;;4842115;29;20056;-74
2022/07/20 04:25:15;;;;;;;4.45;3.65;;;;;;;;;;4858685;29;20132;-73
2022/07/20 04:27:42;;;;;;;7.53;3.85;;;;;;;;;;4855139;29;20145;-73
2022/07/20 04:30:09;;;;;;;7.63;3.45;;;;;;;;;;4858240;29;20049;-74
2022/07/20 04:32:34;;;;;;;4.88;3.50;;;;;;;;;;4857914;29;20044;-73
2022/07/20 04:35:00;;;;;;;3.60;3.30;;;;;;;;;;4858085;29;20129;-73
2022/07/20 04:37:26;;;;;;;4.90;3.33;;;;;;;;;;4841207;29;20092;-73
2022/07/20 04:39:53;;;;;;;4.38;3.55;;;;;;;;;;4856583;29;20527;-74
2022/07/20 04:42:18;;;;;;;10.00;3.63;;;;;;;;;;4857559;29;20212;-72
2022/07/20 04:44:44;;;;;;;3.28;3.08;;;;;;;;;;4857665;29;20137;-71
2022/07/20 04:47:10;;;;;;;9.85;3.85;;;;;;;;;;4856706;29;20049;-72
2022/07/20 04:49:36;;;;;;;3.65;3.33;;;;;;;;;;4857391;29;20578;-72
2022/07/20 04:52:02;;;;;;;3.35;3.15;;;;;;;;;;4857783;29;20136;-72
2022/07/20 04:54:28;;;;;;;5.03;3.10;;;;;;;;;;4840725;29;20136;-71
2022/07/20 04:56:54;;;;;;;4.40;2.90;;;;;;;;;;4857639;29;20077;-72
2022/07/20 04:59:20;;;;;;;9.13;3.20;;;;;;;;;;4840936;29;20107;-71
2022/07/20 05:01:46;;;;;;;3.08;2.88;;;;;;;;;;4857345;29;20546;-72
2022/07/20 05:04:12;;;;;;;2.90;2.70;;;;;;;;;;4857681;29;20503;-72
2022/07/20 05:06:38;;;;;;;3.00;2.80;;;;;;;;;;4856072;29;20045;-70
2022/07/20 05:09:07;;;;;;;3.53;3.00;;;;;;;;;;4840762;29;20208;-72
2022/07/20 05:11:33;;;;;;;3.22;3.03;;;;;;;;;;4857528;29;20045;-72
2022/07/20 05:13:59;;;;;;;3.83;3.50;;;;;;;;;;4857469;29;20050;-72
2022/07/20 05:16:24;;;;;;;3.53;3.25;;;;;;;;;;4856298;29;20117;-73
2022/07/20 05:18:50;;;;;;;3.45;3.25;;;;;;;;;;4840760;29;20444;-71
2022/07/20 05:21:16;;;;;;;3.30;3.10;;;;;;;;;;4856093;29;20045;-72
2022/07/20 05:23:42;;;;;;;3.55;3.25;;;;;;;;;;4857229;29;20554;-72
2022/07/20 05:26:08;;;;;;;6.75;4.50;;;;;;;;;;4857622;29;20041;-70
2022/07/20 05:28:34;;;;;;;4.95;4.55;;;;;;;;;;4857171;29;20055;-71
2022/07/20 05:31:00;;;;;;;16.30;9.77;;;;;;;;;;4841071;29;20061;-71
2022/07/20 05:33:26;;;;;;;11.90;7.85;;;;;;;;;;4857813;29;20046;-72
2022/07/20 05:35:52;;;;;;;7.03;5.57;;;;;;;;;;4857579;29;20089;-73
2022/07/20 05:38:18;;;;;;;9.10;4.97;;;;;;;;;;4857278;29;20077;-73
2022/07/20 05:40:44;;;;;;;4.60;4.22;;;;;;;;;;4857283;29;20050;-71
2022/07/20 05:43:10;;;;;;;4.43;4.03;;;;;;;;;;4857291;29;20056;-73
2022/07/20 05:45:36;;;;;;;4.97;3.63;;;;;;;;;;4857034;29;20221;-72
2022/07/20 05:48:02;;;;;;;3.85;3.20;;;;;;;;;;4857208;29;20502;-71
2022/07/20 05:50:28;;;;;;;3.63;3.30;;;;;;;;;;4857027;29;20497;-73
2022/07/20 05:52:53;;;;;;;5.80;3.70;;;;;;;;;;4857461;29;20045;-71
2022/07/20 05:55:19;;;;;;;4.30;4.00;;;;;;;;;;4860225;29;20048;-73
2022/07/20 05:57:45;;;;;;;4.20;3.80;;;;;;;;;;4860370;29;20069;-72
2022/07/20 06:00:11;;;;;;;4.72;4.20;;;;;;;;;;4860694;29;20045;-70
2022/07/20 06:02:37;;;;;;;4.60;4.20;;;;;;;;;;4860382;29;20068;-72
2022/07/20 06:05:03;;;;;;;5.80;4.10;;;;;;;;;;4860478;29;20632;-71
2022/07/20 06:07:29;;;;;;;5.93;4.70;;;;;;;;;;4860303;29;20120;-73
2022/07/20 06:09:55;;;;;;;5.15;4.70;;;;;;;;;;4860613;29;20125;-72
2022/07/20 06:12:21;;;;;;;4.13;3.83;;;;;;;;;;4860599;29;20053;-72
2022/07/20 06:14:47;;;;;;;4.38;4.10;;;;;;;;;;4860288;29;20045;-72
2022/07/20 06:17:13;;;;;;;4.03;3.72;;;;;;;;;;4846969;29;20065;-71
2022/07/20 06:19:39;;;;;;;4.53;4.13;;;;;;;;;;4843459;29;20045;-71
2022/07/20 06:22:05;;;;;;;3.80;3.60;;;;;;;;;;4860443;29;20183;-72
2022/07/20 06:24:31;;;;;;;4.20;3.90;;;;;;;;;;4843567;29;20345;-73
2022/07/20 06:26:56;;;;;;;5.30;4.80;;;;;;;;;;4860310;29;20049;-72
2022/07/20 06:29:22;;;;;;;4.70;4.40;;;;;;;;;;4842381;29;20057;-71
2022/07/20 06:31:48;;;;;;;6.30;5.90;;;;;;;;;;4858688;29;20037;-70
2022/07/20 06:34:14;;;;;;;6.63;5.30;;;;;;;;;;4851615;29;20471;-71
2022/07/20 06:36:42;;;;;;;5.22;4.82;;;;;;;;;;4841454;29;20046;-71
2022/07/20 06:39:08;;;;;;;5.28;4.88;;;;;;;;;;4841547;29;20042;-71
2022/07/20 06:41:34;;;;;;;5.75;5.13;;;;;;;;;;4841626;29;20587;-72
2022/07/20 06:44:04;;;;;;;;;;;;;;;;;;4840166;29;20046;-71
2022/07/20 06:46:30;;;;;;;4.00;3.80;;;;;;;;;;4848575;29;20404;-70
2022/07/20 06:48:56;;;;;;;4.70;4.30;;;;;;;;;;4857922;29;20053;-71
2022/07/20 06:51:24;;;;;;;4.43;4.13;;;;;;;;;;4856710;29;20519;-72
2022/07/20 06:53:50;;;;;;;3.72;3.53;;;;;;;;;;4841496;29;20201;-73
2022/07/20 06:56:16;;;;;;;4.63;4.25;;;;;;;;;;4858539;29;20053;-71
2022/07/20 06:58:41;;;;;;;5.68;3.92;;;;;;;;;;4843033;29;20519;-71
2022/07/20 07:01:07;;;;;;;3.85;3.65;;;;;;;;;;4858071;29;20418;-72
2022/07/20 07:03:33;;;;;;;3.70;3.50;;;;;;;;;;4842899;29;20525;-72
2022/07/20 07:05:59;;;;;;;3.88;3.60;;;;;;;;;;4859404;29;20506;-72
2022/07/20 07:08:25;;;;;;;4.22;3.78;;;;;;;;;;4843043;29;20053;-71
2022/07/20 07:10:51;;;;;;;2.47;2.33;;;;;;;;;;4859374;29;20042;-71
2022/07/20 07:13:17;;;;;;;2.83;2.63;;;;;;;;;;4842894;29;20052;-72
2022/07/20 07:15:42;;;;;;;2.40;2.30;;;;;;;;;;4859264;29;20445;-72
2022/07/20 07:18:08;;;;;;;3.72;2.20;;;;;;;;;;4827715;29;20053;-73
2022/07/20 07:20:34;;;;;;;2.72;2.50;;;;;;;;;;4857976;29;20081;-72
2022/07/20 07:23:01;;;;;;;2.78;2.30;;;;;;;;;;4859743;29;20046;-71
2022/07/20 07:25:26;;;;;;;2.90;2.70;;;;;;;;;;4860026;29;20159;-72
2022/07/20 07:27:52;;;;;;;2.25;2.15;;;;;;;;;;4859537;29;20101;-73
2022/07/20 07:30:18;;;;;;;2.25;2.15;;;;;;;;;;4859219;29;20050;-72
2022/07/20 07:32:44;;;;;;;2.47;2.28;;;;;;;;;;4842488;29;20077;-72
2022/07/20 07:35:10;;;;;;;2.80;2.60;;;;;;;;;;4859132;29;20069;-72
2022/07/20 07:37:37;;;;;;;3.53;2.75;;;;;;;;;;4859043;29;20064;-73
2022/07/20 07:40:03;;;;;;;5.10;4.70;;;;;;;;;;4842327;29;20442;-72
2022/07/20 07:42:29;;;;;;;6.97;6.38;;;;;;;;;;4859242;29;20049;-73
2022/07/20 07:44:55;;;;;;;8.82;7.93;;;;;;;;;;4842361;29;20562;-74
2022/07/20 07:47:20;;;;;;;7.18;6.47;;;;;;;;;;4842680;29;20072;-72
2022/07/20 07:49:46;;;;;;;9.00;7.28;;;;;;;;;;4842009;29;20128;-72
2022/07/20 07:52:12;;;;;;;6.28;5.78;;;;;;;;;;4858704;29;20059;-73
2022/07/20 07:54:38;;;;;;;6.63;4.78;;;;;;;;;;4858549;29;20392;-72
2022/07/20 07:57:04;;;;;;;4.18;3.03;;;;;;;;;;4858563;29;20072;-72
2022/07/20 07:59:30;;;;;;;2.40;2.20;;;;;;;;;;4858493;29;20060;-73
2022/07/20 08:01:56;;;;;;;1.88;1.77;;;;;;;;;;4826710;29;20041;-73
2022/07/20 08:04:23;;;;;;;2.20;2.10;;;;;;;;;;4858952;29;20053;-72
2022/07/20 08:06:50;;;;;;;2.10;2.00;;;;;;;;;;4858720;29;20049;-74
2022/07/20 08:09:16;;;;;;;1.73;1.65;;;;;;;;;;4858656;29;20065;-73
2022/07/20 08:11:42;;;;;;;2.22;2.03;;;;;;;;;;4858401;29;20080;-73
2022/07/20 08:14:08;;;;;;;2.22;2.03;;;;;;;;;;4858490;29;20076;-74
2022/07/20 08:16:33;;;;;;;2.30;2.05;;;;;;;;;;4857831;29;20072;-74
2022/07/20 08:18:59;;;;;;;2.35;2.15;;;;;;;;;;4858066;29;20038;-75
2022/07/20 08:21:25;;;;;;;1.77;1.67;;;;;;;;;;4858206;29;20106;-73
2022/07/20 08:23:51;;;;;;;2.05;1.73;;;;;;;;;;4858084;29;20038;-72
2022/07/20 08:26:17;;;;;;;1.75;1.65;;;;;;;;;;4858437;29;20076;-73
2022/07/20 08:28:43;;;;;;;1.65;1.55;;;;;;;;;;4857943;29;20046;-74
2022/07/20 08:31:09;;;;;;;1.88;1.77;;;;;;;;;;4858193;29;20083;-73
2022/07/20 08:33:35;;;;;;;1.88;1.55;;;;;;;;;;4841401;29;20137;-73
2022/07/20 08:36:01;;;;;;;1.80;1.70;;;;;;;;;;4852554;29;20145;-72
2022/07/20 08:38:27;;;;;;;3.47;1.80;;;;;;;;;;4839940;29;20046;-73
2022/07/20 08:40:53;;;;;;;1.75;1.75;;;;;;;;;;4839440;29;20145;-73
2022/07/20 08:43:19;;;;;;;1.83;1.75;;;;;;;;;;4839829;29;20114;-74
2022/07/20 08:45:46;;;;;;;3.30;1.73;;;;;;;;;;4844203;29;20046;-74
2022/07/20 08:48:13;;;;;;;1.92;1.83;;;;;;;;;;4822914;29;20054;-74
2022/07/20 08:50:39;;;;;;;1.90;1.80;;;;;;;;;;4837912;29;20558;-74
2022/07/20 08:53:05;;;;;;;2.97;2.78;;;;;;;;;;4839479;29;20050;-74
2022/07/20 08:55:31;;;;;;;2.38;2.28;;;;;;;;;;4838093;29;20042;-73
2022/07/20 08:57:57;;;;;;;3.72;3.53;;;;;;;;;;4837704;29;20066;-73
2022/07/20 09:00:23;;;;;;;6.47;5.97;;;;;;;;;;4823141;29;20188;-73
2022/07/20 09:02:52;;;;;;;3.08;2.78;;;;;;;;;;4853121;29;20073;-73
2022/07/20 09:05:20;;;;;;;2.50;2.40;;;;;;;;;;4836092;29;20061;-74
2022/07/20 09:07:47;;;;;;;2.50;2.30;;;;;;;;;;4848869;29;20045;-74
2022/07/20 09:10:26;;;;;;;2.67;2.13;;;;;;;;;;4829915;29;20060;-74
2022/07/20 09:12:53;;;;;;;2.97;1.67;;;;;;;;;;4847531;29;20049;-76
2022/07/20 09:15:27;;;;;;;1.90;1.80;;;;;;;;;;4831819;29;20289;-71
2022/07/20 09:18:28;;;;;;;2.17;2.08;;;;;;;;;;4848066;29;20538;-71
2022/07/20 09:20:55;;;;;;;2.00;1.90;;;;;;;;;;4805537;29;20074;-73
2022/07/20 09:23:43;;;;;;;3.25;2.72;;;;;;;;;;4846132;29;20065;-74
2022/07/20 09:26:12;;;;;;;3.40;1.92;;;;;;;;;;4841095;29;20137;-76
2022/07/20 09:28:39;;;;;;;2.20;2.03;;;;;;;;;;4859957;29;20128;-76
2022/07/20 09:31:09;;;;;;;1.50;1.50;;;;;;;;;;4841027;29;20090;-75
2022/07/20 09:33:35;;;;;;;1.45;1.45;;;;;;;;;;4844100;29;20083;-76
2022/07/20 09:36:02;;;;;;;1.80;1.70;;;;;;;;;;4861171;29;20140;-75
2022/07/20 09:38:33;;;;;;;2.40;2.20;;;;;;;;;;4840174;29;20046;-74
2022/07/20 09:40:59;;;;;;;4.72;2.97;;;;;;;;;;4838431;29;20049;-75
2022/07/20 09:43:26;;;;;;;4.60;3.03;;;;;;;;;;4857717;29;20050;-77
2022/07/20 09:45:54;;;;;;;3.28;2.97;;;;;;;;;;4844079;29;20463;-77
2022/07/20 09:48:22;;;;;;;3.20;3.00;;;;;;;;;;4844646;29;20041;-73
2022/07/20 09:50:48;;;;;;;7.80;3.20;;;;;;;;;;4862052;29;20537;-74
2022/07/20 09:53:14;;;;;;;2.45;1.73;;;;;;;;;;4867284;29;20049;-73
2022/07/20 09:55:40;;;;;;;1.75;1.50;;;;;;;;;;4870766;29;20609;-74
2022/07/20 09:58:06;;;;;;;2.95;1.90;;;;;;;;;;4864291;29;20176;-73
2022/07/20 10:00:32;;;;;;;5.85;1.92;;;;;;;;;;4842619;29;20076;-75
2022/07/20 10:02:59;;;;;;;3.92;3.00;;;;;;;;;;4859801;29;20124;-74
2022/07/20 10:05:26;;;;;;;2.00;1.90;;;;;;;;;;4828448;29;20042;-75
2022/07/20 10:07:52;;;;;;;2.15;1.45;;;;;;;;;;4860479;29;20143;-75
2022/07/20 10:10:18;;;;;;;1.63;1.52;;;;;;;;;;4859323;29;20578;-74
2022/07/20 10:12:44;;;;;;;1.70;1.60;;;;;;;;;;4860650;29;20075;-75
2022/07/20 10:15:14;;;;;;;1.70;1.60;;;;;;;;;;4844161;29;20077;-75
2022/07/20 10:17:41;;;;;;;1.30;1.25;;;;;;;;;;4844459;29;20057;-74
2022/07/20 10:20:08;;;;;;;1.30;1.30;;;;;;;;;;4860570;29;20074;-73
2022/07/20 10:22:33;;;;;;;2.45;1.40;;;;;;;;;;4843859;29;20050;-74
2022/07/20 10:25:12;;;;;;;1.42;1.33;;;;;;;;;;4860389;29;20051;-75
2022/07/20 10:27:38;;;;;;;1.98;1.10;;;;;;;;;;4860720;29;20507;-74
2022/07/20 10:30:17;;;;;;;1.83;1.30;;;;;;;;;;4860063;29;20045;-73
2022/07/20 10:32:50;;;;;;;1.33;1.20;;;;;;;;;;4860477;29;20049;-75
2022/07/20 10:35:26;;;;;;;1.50;1.40;;;;;;;;;;4860076;29;20053;-73
2022/07/20 10:37:52;;;;;;;3.33;1.73;;;;;;;;;;4843702;29;20438;-74
2022/07/20 10:40:19;;;;;;;1.55;1.25;;;;;;;;;;4842623;29;20041;-73
2022/07/20 10:42:46;;;;;;;1.42;1.27;;;;;;;;;;4860085;29;20060;-75
2022/07/20 10:45:22;;;;;;;5.35;1.20;;;;;;;;;;4859882;29;20041;-74
2022/07/20 10:47:48;;;;;;;1.60;1.50;;;;;;;;;;4859955;29;20045;-73
2022/07/20 10:50:33;;;;;;;1.25;1.25;;;;;;;;;;4859796;29;20063;-75
2022/07/20 10:53:20;;;;;;;1.40;1.30;;;;;;;;;;4843082;29;20056;-74
2022/07/20 10:55:50;;;;;;;2.28;1.20;;;;;;;;;;4859705;29;20141;-76
2022/07/20 10:58:17;;;;;;;2.30;1.45;;;;;;;;;;4859611;29;20465;-75
2022/07/20 11:00:44;;;;;;;1.63;1.52;;;;;;;;;;4859942;29;20503;-74
2022/07/20 11:03:23;;;;;;;1.55;1.45;;;;;;;;;;4842884;29;20044;-74
2022/07/20 11:06:02;;;;;;;2.38;1.50;;;;;;;;;;4843648;29;20049;-75
2022/07/20 11:08:28;;;;;;;1.83;1.70;;;;;;;;;;4848619;29;20060;-75
2022/07/20 11:10:55;;;;;;;1.58;1.48;;;;;;;;;;4859643;29;20046;-75
2022/07/20 11:13:21;;;;;;;1.60;1.50;;;;;;;;;;4859923;29;20084;-75
2022/07/20 11:15:47;;;;;;;1.63;1.52;;;;;;;;;;4859480;29;20049;-76
2022/07/20 11:18:16;;;;;;;2.20;1.50;;;;;;;;;;4859807;29;20472;-75
2022/07/20 11:20:47;;;;;;;2.70;2.50;;;;;;;;;;4843388;29;20156;-75
2022/07/20 11:23:13;;;;;;;1.50;1.50;;;;;;;;;;4859641;29;20132;-76
2022/07/20 11:25:44;;;;;;;1.80;1.55;;;;;;;;;;4859445;29;20569;-74
2022/07/20 11:28:11;;;;;;;1.75;1.65;;;;;;;;;;4859466;29;20132;-75
2022/07/20 11:30:37;;;;;;;2.20;1.88;;;;;;;;;;4859505;29;20111;-73
2022/07/20 11:33:03;;;;;;;1.70;1.60;;;;;;;;;;4859430;29;20041;-74
2022/07/20 11:35:29;;;;;;;2.75;2.55;;;;;;;;;;4842498;29;20136;-75
2022/07/20 11:37:55;;;;;;;1.60;1.50;;;;;;;;;;4859078;29;20507;-75
2022/07/20 11:40:21;;;;;;;2.90;1.55;;;;;;;;;;4859302;29;20128;-74
2022/07/20 11:43:06;;;;;;;3.22;1.48;;;;;;;;;;4859251;29;20472;-75
2022/07/20 11:45:32;;;;;;;1.90;1.75;;;;;;;;;;4859284;29;20591;-75
2022/07/20 11:47:58;;;;;;;1.50;1.40;;;;;;;;;;4842467;29;20507;-74
2022/07/20 11:50:24;;;;;;;2.88;1.60;;;;;;;;;;4842582;29;20060;-75
2022/07/20 11:52:50;;;;;;;2.95;1.90;;;;;;;;;;4841397;29;20053;-74
2022/07/20 11:55:16;;;;;;;1.73;1.60;;;;;;;;;;4842072;29;20077;-75
2022/07/20 11:57:41;;;;;;;1.65;1.55;;;;;;;;;;4858780;29;20057;-75
2022/07/20 12:00:08;;;;;;;6.80;1.85;;;;;;;;;;4857392;29;20503;-77
2022/07/20 12:02:37;;;;;;;2.23;1.63;;;;;;;;;;4859117;29;20042;-73
2022/07/20 12:05:03;;;;;;;1.90;1.80;;;;;;;;;;4842142;29;20282;-73
2022/07/20 12:10:19;;;;;;;;;;;;;;;;;;4858860;29;20144;-75
2022/07/20 12:12:45;;;;;;;4.70;2.10;;;;;;;;;;4858930;29;20015;-75
2022/07/20 12:15:11;;;;;;;2.42;1.65;;;;;;;;;;4858509;29;20478;-75
2022/07/20 12:17:45;;;;;;;4.90;1.77;;;;;;;;;;4842348;29;20092;-73
2022/07/20 12:20:11;;;;;;;9.70;1.95;;;;;;;;;;4858361;29;20045;-74
2022/07/20 12:22:37;;;;;;;5.28;2.20;;;;;;;;;;4858561;29;20053;-75
2022/07/20 12:25:02;;;;;;;3.67;2.40;;;;;;;;;;4841435;29;20072;-75
2022/07/20 12:27:30;;;;;;;3.53;1.92;;;;;;;;;;4858699;29;20096;-75
2022/07/20 12:29:56;;;;;;;4.88;1.95;;;;;;;;;;4858308;29;20102;-73
2022/07/20 12:32:30;;;;;;;6.20;1.70;;;;;;;;;;4858301;29;20515;-75
2022/07/20 12:34:55;;;;;;;5.78;1.73;;;;;;;;;;4858151;29;20114;-75
2022/07/20 12:37:21;;;;;;;2.28;1.40;;;;;;;;;;4858205;29;20128;-74
2022/07/20 12:39:49;;;;;;;4.53;2.17;;;;;;;;;;4858725;29;20045;-77
2022/07/20 12:42:19;;;;;;;4.32;1.55;;;;;;;;;;4858914;29;20127;-75
2022/07/20 12:44:46;;;;;;;2.65;1.40;;;;;;;;;;4859278;29;20046;-74
2022/07/20 12:47:12;;;;;;;1.17;0.88;;;;;;;;;;4859243;29;20136;-74
2022/07/20 12:49:38;;;;;;;1.45;1.35;;;;;;;;;;4858656;29;20045;-74
2022/07/20 12:52:04;;;;;;;1.23;1.13;;;;;;;;;;4846773;29;20056;-74
2022/07/20 12:54:30;;;;;;;1.30;1.23;;;;;;;;;;4863754;29;20050;-75
2022/07/20 12:56:56;;;;;;;3.55;1.27;;;;;;;;;;4863005;29;20182;-73
2022/07/20 12:59:21;;;;;;;1.20;1.10;;;;;;;;;;4845554;29;20137;-74
2022/07/20 13:01:50;;;;;;;1.60;1.05;;;;;;;;;;4858493;29;20053;-72
2022/07/20 13:04:19;;;;;;;2.58;1.05;;;;;;;;;;4858482;29;20041;-75
2022/07/20 13:06:46;;;;;;;2.03;1.30;;;;;;;;;;4857994;29;20053;-75
2022/07/20 13:09:12;;;;;;;1.15;1.13;;;;;;;;;;4856624;29;20193;-76
2022/07/20 13:11:40;;;;;;;0.88;0.85;;;;;;;;;;4857893;29;20514;-75
2022/07/20 13:14:13;;;;;;;1.05;0.98;;;;;;;;;;4857903;29;20108;-75
2022/07/20 13:16:39;;;;;;;1.00;0.98;;;;;;;;;;4857711;29;20057;-74
2022/07/20 13:19:05;;;;;;;1.20;1.10;;;;;;;;;;4841037;29;20042;-75
2022/07/20 13:21:31;;;;;;;0.98;0.98;;;;;;;;;;4857809;29;20049;-75
2022/07/20 13:23:57;;;;;;;1.48;1.38;;;;;;;;;;4857908;29;20038;-73
2022/07/20 13:26:23;;;;;;;3.83;1.40;;;;;;;;;;4857663;29;20054;-75
2022/07/20 13:28:49;;;;;;;1.20;1.10;;;;;;;;;;4841321;29;20077;-73
2022/07/20 13:31:15;;;;;;;3.72;1.40;;;;;;;;;;4841324;29;20063;-75
2022/07/20 13:33:40;;;;;;;2.50;1.20;;;;;;;;;;4858012;29;20041;-74
2022/07/20 13:36:07;;;;;;;4.47;1.27;;;;;;;;;;4857948;29;20058;-74
2022/07/20 13:38:34;;;;;;;1.10;1.10;;;;;;;;;;4858953;29;20044;-75
2022/07/20 13:41:00;;;;;;;7.72;1.50;;;;;;;;;;4858259;29;20044;-75
2022/07/20 13:43:26;;;;;;;5.80;1.63;;;;;;;;;;4858162;29;20050;-75
2022/07/20 13:45:52;;;;;;;1.50;1.50;;;;;;;;;;4857072;29;20045;-74
2022/07/20 13:48:18;;;;;;;3.25;1.83;;;;;;;;;;4857103;29;20045;-74
2022/07/20 13:50:43;;;;;;;4.45;1.40;;;;;;;;;;4859115;29;20052;-75
2022/07/20 13:53:09;;;;;;;3.60;1.70;;;;;;;;;;4859714;29;20519;-77
2022/07/20 13:55:35;;;;;;;4.00;1.60;;;;;;;;;;4859227;29;20122;-74
2022/07/20 13:58:01;;;;;;;5.22;1.60;;;;;;;;;;4842558;29;20114;-76
2022/07/20 14:00:27;;;;;;;1.70;1.60;;;;;;;;;;4858733;29;20049;-73
2022/07/20 14:02:54;;;;;;;5.22;1.70;;;;;;;;;;4841892;29;20045;-74
2022/07/20 14:05:21;;;;;;;3.33;1.38;;;;;;;;;;4842626;29;20144;-73
2022/07/20 14:07:47;;;;;;;2.33;1.27;;;;;;;;;;4859627;29;20041;-76
2022/07/20 14:10:13;;;;;;;4.03;1.67;;;;;;;;;;4859142;29;20049;-76
2022/07/20 14:12:39;;;;;;;2.10;1.50;;;;;;;;;;4859314;29;20029;-75
2022/07/20 14:15:05;;;;;;;4.47;1.55;;;;;;;;;;4868981;29;20518;-75
2022/07/20 14:17:31;;;;;;;1.45;1.20;;;;;;;;;;4870279;29;20502;-73
2022/07/20 14:19:57;;;;;;;1.52;1.42;;;;;;;;;;4861321;29;20049;-75
2022/07/20 14:22:23;;;;;;;5.80;1.70;;;;;;;;;;4861929;29;20045;-75
2022/07/20 14:24:48;;;;;;;3.20;1.30;;;;;;;;;;4862123;29;20045;-76
2022/07/20 14:27:14;;;;;;;4.50;1.48;;;;;;;;;;4845076;29;20044;-76
2022/07/20 14:29:40;;;;;;;1.42;1.33;;;;;;;;;;4861949;29;20709;-73
2022/07/20 14:32:06;;;;;;;1.23;1.20;;;;;;;;;;4862106;29;20132;-78
2022/07/20 14:34:32;;;;;;;1.25;1.15;;;;;;;;;;4861799;29;20056;-75
2022/07/20 14:36:58;;;;;;;2.85;1.60;;;;;;;;;;4861769;29;20423;-77
2022/07/20 14:39:25;;;;;;;3.05;1.92;;;;;;;;;;4861889;29;20060;-76
2022/07/20 14:41:51;;;;;;;3.33;1.60;;;;;;;;;;4830182;29;20230;-74
2022/07/20 14:44:17;;;;;;;5.28;1.60;;;;;;;;;;4845378;29;20225;-75
2022/07/20 14:46:43;;;;;;;2.17;1.80;;;;;;;;;;4861700;29;20050;-76